Terminal Aerodrome Forecast
Issued by NWS Shreveport, LA

Home | Current Version | Previous Version | Text Only | Print | Product List | Glossary On
Versions: 1 2 3 4 5 6 7 8 9 10 11 12 13
000
FTUS44 KSHV 211622 AAA
TAFGGG
TAF AMD
KGGG 211622Z 2116/2212 16004KT P6SM FEW030
      TEMPO 2116/2118 BKN030 BKN250
     FM211800 17007KT P6SM BKN035 BKN250
     FM212100 14007KT P6SM BKN060 BKN250
     FM220000 18005KT P6SM SCT060 SCT250=

USA.gov is the U.S. government's official web portal to all federal, state and local government web resources and services.